sensor_id;sensor_type;location;lat;lon;timestamp;temperature;humidity
4530;DHT22;2277;51.626;7.516;2022-07-17T00:00:26;18.60;99.90
4530;DHT22;2277;51.626;7.516;2022-07-17T00:02:52;18.60;99.90
4530;DHT22;2277;51.626;7.516;2022-07-17T00:05:18;18.50;99.90
4530;DHT22;2277;51.626;7.516;2022-07-17T00:07:44;18.40;99.90
4530;DHT22;2277;51.626;7.516;2022-07-17T00:10:12;18.40;99.90
4530;DHT22;2277;51.626;7.516;2022-07-17T00:12:38;18.40;99.90
4530;DHT22;2277;51.626;7.516;2022-07-17T00:15:04;18.40;99.90
4530;DHT22;2277;51.626;7.516;2022-07-17T00:17:30;18.40;99.90
4530;DHT22;2277;51.626;7.516;2022-07-17T00:19:55;18.30;99.90
4530;DHT22;2277;51.626;7.516;2022-07-17T00:22:21;18.40;99.90
4530;DHT22;2277;51.626;7.516;2022-07-17T00:24:47;18.40;99.90
4530;DHT22;2277;51.626;7.516;2022-07-17T00:27:13;18.30;99.90
4530;DHT22;2277;51.626;7.516;2022-07-17T00:29:38;18.30;99.90
4530;DHT22;2277;51.626;7.516;2022-07-17T00:32:04;18.30;99.90
4530;DHT22;2277;51.626;7.516;2022-07-17T00:34:30;18.30;99.90
4530;DHT22;2277;51.626;7.516;2022-07-17T00:36:56;18.30;99.90
4530;DHT22;2277;51.626;7.516;2022-07-17T00:39:21;18.20;99.90
4530;DHT22;2277;51.626;7.516;2022-07-17T00:41:47;18.20;99.90
4530;DHT22;2277;51.626;7.516;2022-07-17T00:44:13;18.20;99.90
4530;DHT22;2277;51.626;7.516;2022-07-17T00:46:39;18.20;99.90
4530;DHT22;2277;51.626;7.516;2022-07-17T00:49:06;18.20;99.90
4530;DHT22;2277;51.626;7.516;2022-07-17T00:51:33;18.10;99.90
4530;DHT22;2277;51.626;7.516;2022-07-17T00:54:00;18.00;99.90
4530;DHT22;2277;51.626;7.516;2022-07-17T00:56:27;18.00;99.90
4530;DHT22;2277;51.626;7.516;2022-07-17T00:58:53;18.00;99.90
4530;DHT22;2277;51.626;7.516;2022-07-17T01:01:18;18.00;99.90
4530;DHT22;2277;51.626;7.516;2022-07-17T01:03:44;17.90;99.90
4530;DHT22;2277;51.626;7.516;2022-07-17T01:06:10;17.90;99.90
4530;DHT22;2277;51.626;7.516;2022-07-17T01:08:36;17.90;99.90
4530;DHT22;2277;51.626;7.516;2022-07-17T01:11:03;17.90;99.90
4530;DHT22;2277;51.626;7.516;2022-07-17T01:13:31;17.80;99.90
4530;DHT22;2277;51.626;7.516;2022-07-17T01:15:57;17.80;99.90
4530;DHT22;2277;51.626;7.516;2022-07-17T01:18:23;17.70;99.90
4530;DHT22;2277;51.626;7.516;2022-07-17T01:20:49;17.70;99.90
4530;DHT22;2277;51.626;7.516;2022-07-17T01:23:16;17.70;99.90
4530;DHT22;2277;51.626;7.516;2022-07-17T01:25:43;17.70;99.90
4530;DHT22;2277;51.626;7.516;2022-07-17T01:28:09;17.60;99.90
4530;DHT22;2277;51.626;7.516;2022-07-17T01:30:35;17.60;99.90
4530;DHT22;2277;51.626;7.516;2022-07-17T01:33:01;17.60;99.90
4530;DHT22;2277;51.626;7.516;2022-07-17T01:35:28;17.60;99.90
4530;DHT22;2277;51.626;7.516;2022-07-17T01:37:53;17.50;99.90
4530;DHT22;2277;51.626;7.516;2022-07-17T01:40:20;17.50;99.90
4530;DHT22;2277;51.626;7.516;2022-07-17T01:42:48;17.50;99.90
4530;DHT22;2277;51.626;7.516;2022-07-17T01:45:15;17.50;99.90
4530;DHT22;2277;51.626;7.516;2022-07-17T01:47:41;17.50;99.90
4530;DHT22;2277;51.626;7.516;2022-07-17T01:50:10;17.50;99.90
4530;DHT22;2277;51.626;7.516;2022-07-17T01:52:37;17.40;99.90
4530;DHT22;2277;51.626;7.516;2022-07-17T01:55:05;17.50;99.90
4530;DHT22;2277;51.626;7.516;2022-07-17T01:57:31;17.40;99.90
4530;DHT22;2277;51.626;7.516;2022-07-17T01:59:56;17.40;99.90
4530;DHT22;2277;51.626;7.516;2022-07-17T02:02:22;17.30;99.90
4530;DHT22;2277;51.626;7.516;2022-07-17T02:04:48;17.40;99.90
4530;DHT22;2277;51.626;7.516;2022-07-17T02:07:13;17.30;99.90
4530;DHT22;2277;51.626;7.516;2022-07-17T02:09:39;17.20;99.90
4530;DHT22;2277;51.626;7.516;2022-07-17T02:12:06;17.20;99.90
4530;DHT22;2277;51.626;7.516;2022-07-17T02:14:32;17.20;99.90
4530;DHT22;2277;51.626;7.516;2022-07-17T02:16:58;17.10;99.90
4530;DHT22;2277;51.626;7.516;2022-07-17T02:19:24;17.10;99.90
4530;DHT22;2277;51.626;7.516;2022-07-17T02:21:50;17.10;99.90
4530;DHT22;2277;51.626;7.516;2022-07-17T02:24:15;17.10;99.90
4530;DHT22;2277;51.626;7.516;2022-07-17T02:26:41;17.10;99.90
4530;DHT22;2277;51.626;7.516;2022-07-17T02:29:06;17.20;99.90
4530;DHT22;2277;51.626;7.516;2022-07-17T02:31:32;17.10;99.90
4530;DHT22;2277;51.626;7.516;2022-07-17T02:33:58;17.10;99.90
4530;DHT22;2277;51.626;7.516;2022-07-17T02:36:24;17.10;99.90
4530;DHT22;2277;51.626;7.516;2022-07-17T02:38:50;17.00;99.90
4530;DHT22;2277;51.626;7.516;2022-07-17T02:41:15;17.00;99.90
4530;DHT22;2277;51.626;7.516;2022-07-17T02:43:44;17.00;99.90
4530;DHT22;2277;51.626;7.516;2022-07-17T02:46:09;16.90;99.90
4530;DHT22;2277;51.626;7.516;2022-07-17T02:48:35;16.80;99.90
4530;DHT22;2277;51.626;7.516;2022-07-17T02:51:01;16.70;99.90
4530;DHT22;2277;51.626;7.516;2022-07-17T02:53:26;16.60;99.90
4530;DHT22;2277;51.626;7.516;2022-07-17T02:55:52;16.60;99.90
4530;DHT22;2277;51.626;7.516;2022-07-17T02:58:18;16.40;99.90
4530;DHT22;2277;51.626;7.516;2022-07-17T03:00:43;16.50;99.90
4530;DHT22;2277;51.626;7.516;2022-07-17T03:03:10;16.50;99.90
4530;DHT22;2277;51.626;7.516;2022-07-17T03:05:35;16.50;99.90
4530;DHT22;2277;51.626;7.516;2022-07-17T03:08:01;16.50;99.90
4530;DHT22;2277;51.626;7.516;2022-07-17T03:10:26;16.40;99.90
4530;DHT22;2277;51.626;7.516;2022-07-17T03:12:52;16.40;99.90
4530;DHT22;2277;51.626;7.516;2022-07-17T03:15:18;16.40;99.90
4530;DHT22;2277;51.626;7.516;2022-07-17T03:17:44;16.40;99.90
4530;DHT22;2277;51.626;7.516;2022-07-17T03:20:10;16.40;99.90
4530;DHT22;2277;51.626;7.516;2022-07-17T03:22:36;16.40;99.90
4530;DHT22;2277;51.626;7.516;2022-07-17T03:25:02;16.40;99.90
4530;DHT22;2277;51.626;7.516;2022-07-17T03:27:27;16.40;99.90
4530;DHT22;2277;51.626;7.516;2022-07-17T03:29:53;16.40;99.90
4530;DHT22;2277;51.626;7.516;2022-07-17T03:32:20;16.40;99.90
4530;DHT22;2277;51.626;7.516;2022-07-17T03:34:45;16.40;99.90
4530;DHT22;2277;51.626;7.516;2022-07-17T03:37:11;16.40;99.90
4530;DHT22;2277;51.626;7.516;2022-07-17T03:39:39;16.40;99.90
4530;DHT22;2277;51.626;7.516;2022-07-17T03:42:05;16.30;99.90
4530;DHT22;2277;51.626;7.516;2022-07-17T03:44:30;16.30;99.90
4530;DHT22;2277;51.626;7.516;2022-07-17T03:46:56;16.20;99.90
4530;DHT22;2277;51.626;7.516;2022-07-17T03:49:22;16.20;99.90
4530;DHT22;2277;51.626;7.516;2022-07-17T03:51:48;16.10;99.90
4530;DHT22;2277;51.626;7.516;2022-07-17T03:54:13;16.10;99.90
4530;DHT22;2277;51.626;7.516;2022-07-17T03:56:39;16.10;99.90
4530;DHT22;2277;51.626;7.516;2022-07-17T03:59:05;16.10;99.90
4530;DHT22;2277;51.626;7.516;2022-07-17T04:01:30;15.90;99.90
4530;DHT22;2277;51.626;7.516;2022-07-17T04:03:56;15.80;99.90
4530;DHT22;2277;51.626;7.516;2022-07-17T04:06:22;15.80;99.90
4530;DHT22;2277;51.626;7.516;2022-07-17T04:08:47;15.90;99.90
4530;DHT22;2277;51.626;7.516;2022-07-17T04:11:13;15.90;99.90
4530;DHT22;2277;51.626;7.516;2022-07-17T04:13:39;15.90;99.90
4530;DHT22;2277;51.626;7.516;2022-07-17T04:16:04;15.90;99.90
4530;DHT22;2277;51.626;7.516;2022-07-17T04:18:33;15.90;99.90
4530;DHT22;2277;51.626;7.516;2022-07-17T04:21:04;15.90;99.90
4530;DHT22;2277;51.626;7.516;2022-07-17T04:23:30;15.90;99.90
4530;DHT22;2277;51.626;7.516;2022-07-17T04:25:56;16.00;99.90
4530;DHT22;2277;51.626;7.516;2022-07-17T04:28:22;15.90;99.90
4530;DHT22;2277;51.626;7.516;2022-07-17T04:30:48;15.90;99.90
4530;DHT22;2277;51.626;7.516;2022-07-17T04:33:14;15.80;99.90
4530;DHT22;2277;51.626;7.516;2022-07-17T04:35:40;15.80;99.90
4530;DHT22;2277;51.626;7.516;2022-07-17T04:38:06;15.70;99.90
4530;DHT22;2277;51.626;7.516;2022-07-17T04:40:34;15.50;99.90
4530;DHT22;2277;51.626;7.516;2022-07-17T04:43:00;15.40;99.90
4530;DHT22;2277;51.626;7.516;2022-07-17T04:45:25;15.30;99.90
4530;DHT22;2277;51.626;7.516;2022-07-17T04:47:51;15.30;99.90
4530;DHT22;2277;51.626;7.516;2022-07-17T04:50:18;15.20;99.90
4530;DHT22;2277;51.626;7.516;2022-07-17T04:52:43;15.10;99.90
4530;DHT22;2277;51.626;7.516;2022-07-17T04:55:09;15.00;99.90
4530;DHT22;2277;51.626;7.516;2022-07-17T04:57:35;15.00;99.90
4530;DHT22;2277;51.626;7.516;2022-07-17T05:00:01;15.00;99.90
4530;DHT22;2277;51.626;7.516;2022-07-17T05:02:27;15.10;99.90
4530;DHT22;2277;51.626;7.516;2022-07-17T05:04:52;15.20;99.90
4530;DHT22;2277;51.626;7.516;2022-07-17T05:07:18;15.30;99.90
4530;DHT22;2277;51.626;7.516;2022-07-17T05:09:44;15.40;99.90
4530;DHT22;2277;51.626;7.516;2022-07-17T05:12:09;15.50;99.90
4530;DHT22;2277;51.626;7.516;2022-07-17T05:14:35;15.60;99.90
4530;DHT22;2277;51.626;7.516;2022-07-17T05:17:00;15.60;99.90
4530;DHT22;2277;51.626;7.516;2022-07-17T05:19:26;15.70;99.90
4530;DHT22;2277;51.626;7.516;2022-07-17T05:21:52;15.70;99.90
4530;DHT22;2277;51.626;7.516;2022-07-17T05:24:17;15.60;99.90
4530;DHT22;2277;51.626;7.516;2022-07-17T05:26:43;15.60;99.90
4530;DHT22;2277;51.626;7.516;2022-07-17T05:29:09;15.60;99.90
4530;DHT22;2277;51.626;7.516;2022-07-17T05:31:35;15.60;99.90
4530;DHT22;2277;51.626;7.516;2022-07-17T05:34:00;15.60;99.90
4530;DHT22;2277;51.626;7.516;2022-07-17T05:36:26;15.60;99.90
4530;DHT22;2277;51.626;7.516;2022-07-17T05:38:52;15.60;99.90
4530;DHT22;2277;51.626;7.516;2022-07-17T05:41:17;15.50;99.90
4530;DHT22;2277;51.626;7.516;2022-07-17T05:43:43;15.50;99.90
4530;DHT22;2277;51.626;7.516;2022-07-17T05:46:09;15.50;99.90
4530;DHT22;2277;51.626;7.516;2022-07-17T05:48:34;15.60;99.90
4530;DHT22;2277;51.626;7.516;2022-07-17T05:51:00;15.70;99.90
4530;DHT22;2277;51.626;7.516;2022-07-17T05:53:26;15.80;99.90
4530;DHT22;2277;51.626;7.516;2022-07-17T05:55:51;15.70;99.90
4530;DHT22;2277;51.626;7.516;2022-07-17T05:58:18;15.80;99.90
4530;DHT22;2277;51.626;7.516;2022-07-17T06:00:44;16.00;99.90
4530;DHT22;2277;51.626;7.516;2022-07-17T06:03:10;16.00;99.90
4530;DHT22;2277;51.626;7.516;2022-07-17T06:05:36;16.00;99.90
4530;DHT22;2277;51.626;7.516;2022-07-17T06:08:02;15.90;99.90
4530;DHT22;2277;51.626;7.516;2022-07-17T06:10:28;15.80;99.90
4530;DHT22;2277;51.626;7.516;2022-07-17T06:12:54;15.90;99.90
4530;DHT22;2277;51.626;7.516;2022-07-17T06:15:20;15.90;99.90
4530;DHT22;2277;51.626;7.516;2022-07-17T06:17:47;16.00;99.90
4530;DHT22;2277;51.626;7.516;2022-07-17T06:20:13;16.00;99.90
4530;DHT22;2277;51.626;7.516;2022-07-17T06:22:40;16.00;99.90
4530;DHT22;2277;51.626;7.516;2022-07-17T06:25:06;16.10;99.90
4530;DHT22;2277;51.626;7.516;2022-07-17T06:27:32;16.10;99.90
4530;DHT22;2277;51.626;7.516;2022-07-17T06:29:58;16.20;99.90
4530;DHT22;2277;51.626;7.516;2022-07-17T06:32:24;16.20;99.90
4530;DHT22;2277;51.626;7.516;2022-07-17T06:34:50;16.40;99.90
4530;DHT22;2277;51.626;7.516;2022-07-17T06:37:16;16.50;99.90
4530;DHT22;2277;51.626;7.516;2022-07-17T06:39:41;16.70;99.90
4530;DHT22;2277;51.626;7.516;2022-07-17T06:42:07;16.80;99.90
4530;DHT22;2277;51.626;7.516;2022-07-17T06:44:33;16.90;99.90
4530;DHT22;2277;51.626;7.516;2022-07-17T06:47:00;17.00;99.90
4530;DHT22;2277;51.626;7.516;2022-07-17T06:49:25;17.00;99.90
4530;DHT22;2277;51.626;7.516;2022-07-17T06:51:51;17.00;99.90
4530;DHT22;2277;51.626;7.516;2022-07-17T06:54:17;17.10;99.90
4530;DHT22;2277;51.626;7.516;2022-07-17T06:56:43;17.20;99.90
4530;DHT22;2277;51.626;7.516;2022-07-17T06:59:09;17.20;99.90
4530;DHT22;2277;51.626;7.516;2022-07-17T07:01:37;17.30;99.90
4530;DHT22;2277;51.626;7.516;2022-07-17T07:04:04;17.50;99.90
4530;DHT22;2277;51.626;7.516;2022-07-17T07:06:30;17.80;99.90
4530;DHT22;2277;51.626;7.516;2022-07-17T07:08:56;18.00;99.90
4530;DHT22;2277;51.626;7.516;2022-07-17T07:11:22;18.00;99.90
4530;DHT22;2277;51.626;7.516;2022-07-17T07:13:48;18.20;99.90
4530;DHT22;2277;51.626;7.516;2022-07-17T07:16:14;18.30;99.90
4530;DHT22;2277;51.626;7.516;2022-07-17T07:18:40;18.50;99.90
4530;DHT22;2277;51.626;7.516;2022-07-17T07:21:06;18.50;99.90
4530;DHT22;2277;51.626;7.516;2022-07-17T07:23:31;18.50;99.90
4530;DHT22;2277;51.626;7.516;2022-07-17T07:25:57;18.50;99.90
4530;DHT22;2277;51.626;7.516;2022-07-17T07:28:22;18.50;99.90
4530;DHT22;2277;51.626;7.516;2022-07-17T07:30:48;18.50;99.90
4530;DHT22;2277;51.626;7.516;2022-07-17T07:33:14;18.60;99.90
4530;DHT22;2277;51.626;7.516;2022-07-17T07:35:42;18.80;99.90
4530;DHT22;2277;51.626;7.516;2022-07-17T07:38:08;19.00;99.90
4530;DHT22;2277;51.626;7.516;2022-07-17T07:40:34;19.20;99.90
4530;DHT22;2277;51.626;7.516;2022-07-17T07:43:00;19.50;99.90
4530;DHT22;2277;51.626;7.516;2022-07-17T07:45:25;19.80;99.90
4530;DHT22;2277;51.626;7.516;2022-07-17T07:47:51;19.90;99.90
4530;DHT22;2277;51.626;7.516;2022-07-17T07:50:18;20.30;99.90
4530;DHT22;2277;51.626;7.516;2022-07-17T07:52:44;20.70;99.90
4530;DHT22;2277;51.626;7.516;2022-07-17T07:55:11;20.90;99.90
4530;DHT22;2277;51.626;7.516;2022-07-17T07:57:37;21.20;99.90
4530;DHT22;2277;51.626;7.516;2022-07-17T08:00:08;21.30;99.90
4530;DHT22;2277;51.626;7.516;2022-07-17T08:02:34;21.20;99.90
4530;DHT22;2277;51.626;7.516;2022-07-17T08:04:59;21.40;99.90
4530;DHT22;2277;51.626;7.516;2022-07-17T08:07:26;21.40;99.90
4530;DHT22;2277;51.626;7.516;2022-07-17T08:09:52;21.80;99.90
4530;DHT22;2277;51.626;7.516;2022-07-17T08:12:18;21.90;99.90
4530;DHT22;2277;51.626;7.516;2022-07-17T08:14:44;22.10;99.90
4530;DHT22;2277;51.626;7.516;2022-07-17T08:17:09;22.40;99.90
4530;DHT22;2277;51.626;7.516;2022-07-17T08:19:35;22.40;99.90
4530;DHT22;2277;51.626;7.516;2022-07-17T08:22:00;22.40;99.90
4530;DHT22;2277;51.626;7.516;2022-07-17T08:24:26;22.60;99.90
4530;DHT22;2277;51.626;7.516;2022-07-17T08:26:52;22.90;99.90
4530;DHT22;2277;51.626;7.516;2022-07-17T08:29:17;23.20;99.90
4530;DHT22;2277;51.626;7.516;2022-07-17T08:31:43;23.50;99.90
4530;DHT22;2277;51.626;7.516;2022-07-17T08:34:09;23.60;99.90
4530;DHT22;2277;51.626;7.516;2022-07-17T08:36:35;23.90;99.90
4530;DHT22;2277;51.626;7.516;2022-07-17T08:39:01;24.10;99.90
4530;DHT22;2277;51.626;7.516;2022-07-17T08:41:29;24.40;99.90
4530;DHT22;2277;51.626;7.516;2022-07-17T08:43:54;24.50;99.90
4530;DHT22;2277;51.626;7.516;2022-07-17T08:46:23;24.60;99.30
4530;DHT22;2277;51.626;7.516;2022-07-17T08:48:56;24.80;99.20
4530;DHT22;2277;51.626;7.516;2022-07-17T08:51:22;24.90;98.10
4530;DHT22;2277;51.626;7.516;2022-07-17T08:53:49;25.10;97.30
4530;DHT22;2277;51.626;7.516;2022-07-17T08:56:14;25.20;96.50
4530;DHT22;2277;51.626;7.516;2022-07-17T08:58:40;25.40;96.70
4530;DHT22;2277;51.626;7.516;2022-07-17T09:01:06;25.50;97.10
4530;DHT22;2277;51.626;7.516;2022-07-17T09:03:32;25.80;94.80
4530;DHT22;2277;51.626;7.516;2022-07-17T09:05:57;25.80;94.20
4530;DHT22;2277;51.626;7.516;2022-07-17T09:08:24;25.50;93.30
4530;DHT22;2277;51.626;7.516;2022-07-17T09:10:52;25.70;94.50
4530;DHT22;2277;51.626;7.516;2022-07-17T09:13:29;25.90;93.90
4530;DHT22;2277;51.626;7.516;2022-07-17T09:15:59;26.20;93.60
4530;DHT22;2277;51.626;7.516;2022-07-17T09:18:31;26.30;91.40
4530;DHT22;2277;51.626;7.516;2022-07-17T09:20:58;26.20;90.70
4530;DHT22;2277;51.626;7.516;2022-07-17T09:23:25;26.40;90.60
4530;DHT22;2277;51.626;7.516;2022-07-17T09:25:56;26.70;90.80
4530;DHT22;2277;51.626;7.516;2022-07-17T09:28:22;26.80;90.00
4530;DHT22;2277;51.626;7.516;2022-07-17T09:30:53;27.10;87.10
4530;DHT22;2277;51.626;7.516;2022-07-17T09:33:22;27.30;85.80
4530;DHT22;2277;51.626;7.516;2022-07-17T09:35:53;27.20;82.50
4530;DHT22;2277;51.626;7.516;2022-07-17T09:38:27;27.20;81.10
4530;DHT22;2277;51.626;7.516;2022-07-17T09:46:14;27.00;83.60
4530;DHT22;2277;51.626;7.516;2022-07-17T09:48:46;27.30;80.70
4530;DHT22;2277;51.626;7.516;2022-07-17T09:53:50;27.60;76.90
4530;DHT22;2277;51.626;7.516;2022-07-17T09:56:17;27.80;76.30
4530;DHT22;2277;51.626;7.516;2022-07-17T09:58:50;27.90;78.90
4530;DHT22;2277;51.626;7.516;2022-07-17T10:01:17;28.10;78.10
4530;DHT22;2277;51.626;7.516;2022-07-17T10:03:43;28.30;75.90
4530;DHT22;2277;51.626;7.516;2022-07-17T10:06:10;28.40;76.30
4530;DHT22;2277;51.626;7.516;2022-07-17T10:08:37;28.60;74.30
4530;DHT22;2277;51.626;7.516;2022-07-17T10:11:07;28.70;73.90
4530;DHT22;2277;51.626;7.516;2022-07-17T10:13:36;28.80;72.90
4530;DHT22;2277;51.626;7.516;2022-07-17T10:16:04;28.90;71.70
4530;DHT22;2277;51.626;7.516;2022-07-17T10:18:41;29.20;69.70
4530;DHT22;2277;51.626;7.516;2022-07-17T10:21:18;29.20;68.40
4530;DHT22;2277;51.626;7.516;2022-07-17T10:26:32;29.00;66.40
4530;DHT22;2277;51.626;7.516;2022-07-17T10:28:58;28.60;65.40
4530;DHT22;2277;51.626;7.516;2022-07-17T10:31:25;28.50;65.30
4530;DHT22;2277;51.626;7.516;2022-07-17T10:33:56;28.50;64.60
4530;DHT22;2277;51.626;7.516;2022-07-17T10:39:16;29.00;64.80
4530;DHT22;2277;51.626;7.516;2022-07-17T10:41:54;29.00;64.50
4530;DHT22;2277;51.626;7.516;2022-07-17T10:44:31;29.10;63.40
4530;DHT22;2277;51.626;7.516;2022-07-17T10:47:00;29.40;64.40
4530;DHT22;2277;51.626;7.516;2022-07-17T10:49:26;29.60;63.90
4530;DHT22;2277;51.626;7.516;2022-07-17T10:51:52;29.60;62.40
4530;DHT22;2277;51.626;7.516;2022-07-17T10:54:19;29.60;61.40
4530;DHT22;2277;51.626;7.516;2022-07-17T10:56:45;29.80;62.80
4530;DHT22;2277;51.626;7.516;2022-07-17T10:59:11;30.00;63.00
4530;DHT22;2277;51.626;7.516;2022-07-17T11:01:37;30.30;62.20
4530;DHT22;2277;51.626;7.516;2022-07-17T11:04:03;30.50;61.50
4530;DHT22;2277;51.626;7.516;2022-07-17T11:06:33;30.60;61.40
4530;DHT22;2277;51.626;7.516;2022-07-17T11:09:07;30.90;60.70
4530;DHT22;2277;51.626;7.516;2022-07-17T11:11:50;31.00;60.30
4530;DHT22;2277;51.626;7.516;2022-07-17T11:14:21;31.30;57.60
4530;DHT22;2277;51.626;7.516;2022-07-17T11:16:56;31.40;58.20
4530;DHT22;2277;51.626;7.516;2022-07-17T11:21:55;31.60;57.60
4530;DHT22;2277;51.626;7.516;2022-07-17T11:24:22;31.60;56.60
4530;DHT22;2277;51.626;7.516;2022-07-17T11:26:50;31.80;56.80
4530;DHT22;2277;51.626;7.516;2022-07-17T11:29:16;31.80;55.60
4530;DHT22;2277;51.626;7.516;2022-07-17T11:31:42;32.00;56.40
4530;DHT22;2277;51.626;7.516;2022-07-17T11:34:09;31.70;53.70
4530;DHT22;2277;51.626;7.516;2022-07-17T11:36:43;31.60;55.00
4530;DHT22;2277;51.626;7.516;2022-07-17T11:39:16;31.80;54.40
4530;DHT22;2277;51.626;7.516;2022-07-17T11:41:46;32.00;55.20
4530;DHT22;2277;51.626;7.516;2022-07-17T11:44:18;32.10;53.90
4530;DHT22;2277;51.626;7.516;2022-07-17T11:46:46;32.30;52.50
4530;DHT22;2277;51.626;7.516;2022-07-17T11:49:30;32.20;51.30
4530;DHT22;2277;51.626;7.516;2022-07-17T11:51:57;32.40;51.40
4530;DHT22;2277;51.626;7.516;2022-07-17T11:54:24;32.20;51.10
4530;DHT22;2277;51.626;7.516;2022-07-17T11:56:55;32.50;51.30
4530;DHT22;2277;51.626;7.516;2022-07-17T11:59:30;32.60;51.80
4530;DHT22;2277;51.626;7.516;2022-07-17T12:02:06;32.70;52.40
4530;DHT22;2277;51.626;7.516;2022-07-17T12:04:33;32.80;49.80
4530;DHT22;2277;51.626;7.516;2022-07-17T12:07:00;32.80;48.90
4530;DHT22;2277;51.626;7.516;2022-07-17T12:09:28;32.90;50.30
4530;DHT22;2277;51.626;7.516;2022-07-17T12:11:54;32.90;48.90
4530;DHT22;2277;51.626;7.516;2022-07-17T12:14:20;33.00;48.00
4530;DHT22;2277;51.626;7.516;2022-07-17T12:16:46;32.90;48.30
4530;DHT22;2277;51.626;7.516;2022-07-17T12:19:16;32.90;48.00
4530;DHT22;2277;51.626;7.516;2022-07-17T12:21:58;32.70;48.00
4530;DHT22;2277;51.626;7.516;2022-07-17T12:26:52;32.90;49.10
4530;DHT22;2277;51.626;7.516;2022-07-17T12:29:18;33.10;48.30
4530;DHT22;2277;51.626;7.516;2022-07-17T12:31:44;33.10;48.10
4530;DHT22;2277;51.626;7.516;2022-07-17T12:34:10;33.10;47.40
4530;DHT22;2277;51.626;7.516;2022-07-17T12:36:36;33.20;46.60
4530;DHT22;2277;51.626;7.516;2022-07-17T12:39:02;33.00;45.90
4530;DHT22;2277;51.626;7.516;2022-07-17T12:41:28;33.00;47.20
4530;DHT22;2277;51.626;7.516;2022-07-17T12:43:54;33.10;48.00
4530;DHT22;2277;51.626;7.516;2022-07-17T12:46:19;33.30;48.00
4530;DHT22;2277;51.626;7.516;2022-07-17T12:48:45;33.30;46.80
4530;DHT22;2277;51.626;7.516;2022-07-17T12:51:12;33.40;46.60
4530;DHT22;2277;51.626;7.516;2022-07-17T12:53:40;33.40;44.80
4530;DHT22;2277;51.626;7.516;2022-07-17T12:56:07;33.50;47.10
4530;DHT22;2277;51.626;7.516;2022-07-17T12:58:33;33.50;46.40
4530;DHT22;2277;51.626;7.516;2022-07-17T13:00:59;33.50;46.00
4530;DHT22;2277;51.626;7.516;2022-07-17T13:03:25;33.30;43.70
4530;DHT22;2277;51.626;7.516;2022-07-17T13:05:51;33.30;44.10
4530;DHT22;2277;51.626;7.516;2022-07-17T13:08:17;33.10;44.30
4530;DHT22;2277;51.626;7.516;2022-07-17T13:10:42;32.80;42.80
4530;DHT22;2277;51.626;7.516;2022-07-17T13:13:08;31.90;44.10
4530;DHT22;2277;51.626;7.516;2022-07-17T13:15:34;31.60;45.70
4530;DHT22;2277;51.626;7.516;2022-07-17T13:18:00;31.90;47.30
4530;DHT22;2277;51.626;7.516;2022-07-17T13:20:26;32.20;47.70
4530;DHT22;2277;51.626;7.516;2022-07-17T13:22:52;32.60;47.50
4530;DHT22;2277;51.626;7.516;2022-07-17T13:25:18;32.80;46.20
4530;DHT22;2277;51.626;7.516;2022-07-17T13:27:43;32.90;44.20
4530;DHT22;2277;51.626;7.516;2022-07-17T13:30:10;33.00;45.60
4530;DHT22;2277;51.626;7.516;2022-07-17T13:32:37;33.00;44.50
4530;DHT22;2277;51.626;7.516;2022-07-17T13:35:03;32.90;44.50
4530;DHT22;2277;51.626;7.516;2022-07-17T13:37:29;32.90;44.30
4530;DHT22;2277;51.626;7.516;2022-07-17T13:39:54;33.00;44.70
4530;DHT22;2277;51.626;7.516;2022-07-17T13:42:20;33.00;44.70
4530;DHT22;2277;51.626;7.516;2022-07-17T13:44:46;33.00;43.80
4530;DHT22;2277;51.626;7.516;2022-07-17T13:47:11;33.10;44.50
4530;DHT22;2277;51.626;7.516;2022-07-17T13:49:37;33.20;44.40
4530;DHT22;2277;51.626;7.516;2022-07-17T13:52:03;33.40;46.00
4530;DHT22;2277;51.626;7.516;2022-07-17T13:54:28;33.40;42.80
4530;DHT22;2277;51.626;7.516;2022-07-17T13:56:54;33.40;43.20
4530;DHT22;2277;51.626;7.516;2022-07-17T13:59:20;33.30;43.20
4530;DHT22;2277;51.626;7.516;2022-07-17T14:01:45;33.30;44.60
4530;DHT22;2277;51.626;7.516;2022-07-17T14:04:11;33.40;45.20
4530;DHT22;2277;51.626;7.516;2022-07-17T14:06:37;33.40;44.60
4530;DHT22;2277;51.626;7.516;2022-07-17T14:09:03;33.30;44.40
4530;DHT22;2277;51.626;7.516;2022-07-17T14:11:28;33.40;44.70
4530;DHT22;2277;51.626;7.516;2022-07-17T14:13:54;33.30;44.60
4530;DHT22;2277;51.626;7.516;2022-07-17T14:16:20;33.30;45.00
4530;DHT22;2277;51.626;7.516;2022-07-17T14:18:46;33.30;45.00
4530;DHT22;2277;51.626;7.516;2022-07-17T14:21:34;33.30;44.20
4530;DHT22;2277;51.626;7.516;2022-07-17T14:24:01;33.20;42.50
4530;DHT22;2277;51.626;7.516;2022-07-17T14:26:27;33.20;42.80
4530;DHT22;2277;51.626;7.516;2022-07-17T14:28:52;32.90;42.10
4530;DHT22;2277;51.626;7.516;2022-07-17T14:31:18;32.80;44.00
4530;DHT22;2277;51.626;7.516;2022-07-17T14:33:44;32.80;43.30
4530;DHT22;2277;51.626;7.516;2022-07-17T14:36:10;32.70;42.30
4530;DHT22;2277;51.626;7.516;2022-07-17T14:38:36;32.60;41.60
4530;DHT22;2277;51.626;7.516;2022-07-17T14:41:02;32.10;40.80
4530;DHT22;2277;51.626;7.516;2022-07-17T14:43:28;31.70;41.20
4530;DHT22;2277;51.626;7.516;2022-07-17T14:45:55;31.70;43.00
4530;DHT22;2277;51.626;7.516;2022-07-17T14:48:21;31.90;43.90
4530;DHT22;2277;51.626;7.516;2022-07-17T14:50:47;31.90;43.10
4530;DHT22;2277;51.626;7.516;2022-07-17T14:53:12;31.70;41.80
4530;DHT22;2277;51.626;7.516;2022-07-17T14:55:38;31.60;41.90
4530;DHT22;2277;51.626;7.516;2022-07-17T14:58:04;31.60;43.00
4530;DHT22;2277;51.626;7.516;2022-07-17T15:00:30;31.60;43.00
4530;DHT22;2277;51.626;7.516;2022-07-17T15:02:55;31.70;44.30
4530;DHT22;2277;51.626;7.516;2022-07-17T15:05:21;31.90;44.30
4530;DHT22;2277;51.626;7.516;2022-07-17T15:07:47;31.60;43.20
4530;DHT22;2277;51.626;7.516;2022-07-17T15:10:12;31.50;43.40
4530;DHT22;2277;51.626;7.516;2022-07-17T15:12:38;31.50;43.90
4530;DHT22;2277;51.626;7.516;2022-07-17T15:15:04;31.50;43.70
4530;DHT22;2277;51.626;7.516;2022-07-17T15:17:29;31.20;43.50
4530;DHT22;2277;51.626;7.516;2022-07-17T15:19:55;31.30;43.80
4530;DHT22;2277;51.626;7.516;2022-07-17T15:22:21;31.30;45.10
4530;DHT22;2277;51.626;7.516;2022-07-17T15:24:46;31.40;44.70
4530;DHT22;2277;51.626;7.516;2022-07-17T15:27:12;31.40;44.00
4530;DHT22;2277;51.626;7.516;2022-07-17T15:29:38;31.40;44.70
4530;DHT22;2277;51.626;7.516;2022-07-17T15:32:04;31.30;43.80
4530;DHT22;2277;51.626;7.516;2022-07-17T15:34:30;31.10;44.30
4530;DHT22;2277;51.626;7.516;2022-07-17T15:36:56;31.20;44.90
4530;DHT22;2277;51.626;7.516;2022-07-17T15:39:21;31.30;45.00
4530;DHT22;2277;51.626;7.516;2022-07-17T15:41:47;30.90;44.20
4530;DHT22;2277;51.626;7.516;2022-07-17T15:44:14;30.80;45.30
4530;DHT22;2277;51.626;7.516;2022-07-17T15:46:42;31.00;45.70
4530;DHT22;2277;51.626;7.516;2022-07-17T15:49:08;31.00;45.70
4530;DHT22;2277;51.626;7.516;2022-07-17T15:51:35;31.10;45.20
4530;DHT22;2277;51.626;7.516;2022-07-17T15:54:00;31.20;45.60
4530;DHT22;2277;51.626;7.516;2022-07-17T15:56:30;31.20;45.60
4530;DHT22;2277;51.626;7.516;2022-07-17T15:58:55;31.30;46.00
4530;DHT22;2277;51.626;7.516;2022-07-17T16:01:21;31.40;45.80
4530;DHT22;2277;51.626;7.516;2022-07-17T16:03:47;31.50;44.20
4530;DHT22;2277;51.626;7.516;2022-07-17T16:06:12;31.50;44.00
4530;DHT22;2277;51.626;7.516;2022-07-17T16:08:38;31.50;45.30
4530;DHT22;2277;51.626;7.516;2022-07-17T16:11:05;31.50;44.20
4530;DHT22;2277;51.626;7.516;2022-07-17T16:13:31;31.50;44.40
4530;DHT22;2277;51.626;7.516;2022-07-17T16:15:56;31.50;44.90